Terminal Aerodrome Forecast
Issued by NWS Medford, OR

Home | Current Version | Previous Version | Text Only | Print | Product List | Glossary On
Versions: 1 2 3 4 5 6 7 8 9 10 11 12 13 14 15 16
000
FTUS46 KMFR 241700
TAFMFR
TAF
KMFR 241739Z 2418/2518 35006KT P6SM FEW050
     FM242200 32008KT P6SM SKC
     FM250000 32012G17KT P6SM SKC
     FM250400 VRB03KT P6SM SKC=

USA.gov is the U.S. government's official web portal to all federal, state and local government web resources and services.